TimeCDT,TemperatureF,Dew PointF,Humidity,Sea Level PressureIn,VisibilityMPH,Wind Direction,Wind SpeedMPH,Gust SpeedMPH,PrecipitationIn,Events,Conditions,WindDirDegrees,DateUTC
12:13 AM,82.4,69.8,66,29.83,10.0,South,9.2,17.3,N/A,,Scattered Clouds,180,2013-07-13 05:13:00
12:34 AM,82.4,69.8,66,29.84,10.0,South,6.9,-,N/A,,Clear,170,2013-07-13 05:34:00
12:53 AM,82.4,69.8,66,29.85,10.0,WNW,4.6,-,N/A,,Clear,300,2013-07-13 05:53:00
1:13 AM,80.6,69.8,70,29.85,10.0,Calm,Calm,-,N/A,,Clear,0,2013-07-13 06:13:00
1:33 AM,80.6,69.8,70,29.84,10.0,South,5.8,-,N/A,,Clear,190,2013-07-13 06:33:00
1:54 AM,80.6,69.8,70,29.84,10.0,WSW,3.5,-,N/A,,Clear,250,2013-07-13 06:54:00
2:14 AM,80.6,68.0,65,29.84,10.0,SSW,3.5,-,N/A,,Clear,210,2013-07-13 07:14:00
2:35 AM,80.6,68.0,65,29.85,10.0,Calm,Calm,-,N/A,,Clear,0,2013-07-13 07:35:00
2:53 AM,78.8,69.8,74,29.85,10.0,East,3.5,-,N/A,,Clear,90,2013-07-13 07:53:00
3:14 AM,75.2,69.8,83,29.85,10.0,East,5.8,-,N/A,,Clear,100,2013-07-13 08:14:00
3:34 AM,75.2,69.8,83,29.85,10.0,ESE,4.6,-,N/A,,Clear,110,2013-07-13 08:34:00
3:53 AM,75.2,69.8,83,29.85,10.0,ESE,5.8,-,N/A,,Clear,110,2013-07-13 08:53:00
4:13 AM,75.2,69.8,83,29.85,10.0,SE,3.5,-,N/A,,Clear,130,2013-07-13 09:13:00
4:33 AM,75.2,69.8,83,29.86,10.0,ESE,4.6,-,N/A,,Mostly Cloudy,110,2013-07-13 09:33:00
4:53 AM,75.2,69.8,83,29.87,10.0,SE,4.6,-,N/A,,Overcast,140,2013-07-13 09:53:00
5:13 AM,75.2,68.0,78,29.86,10.0,SE,3.5,-,N/A,,Overcast,140,2013-07-13 10:13:00
5:33 AM,75.2,68.0,78,29.87,10.0,SE,6.9,-,N/A,,Overcast,140,2013-07-13 10:33:00
5:54 AM,75.2,68.0,78,29.87,10.0,SSE,6.9,-,N/A,,Overcast,150,2013-07-13 10:54:00
6:13 AM,75.2,69.8,83,29.88,10.0,SE,4.6,-,N/A,,Mostly Cloudy,140,2013-07-13 11:13:00
6:33 AM,75.2,69.8,83,29.88,10.0,SSE,6.9,-,N/A,,Overcast,150,2013-07-13 11:33:00
6:53 AM,75.2,69.8,83,29.89,10.0,SE,4.6,-,N/A,,Overcast,140,2013-07-13 11:53:00
7:13 AM,77.0,69.8,78,29.89,10.0,ESE,6.9,-,N/A,,Mostly Cloudy,110,2013-07-13 12:13:00
7:33 AM,77.0,69.8,78,29.89,10.0,ESE,6.9,-,N/A,,Scattered Clouds,120,2013-07-13 12:33:00
7:54 AM,77.0,68.0,74,29.90,10.0,SE,9.2,-,N/A,,Scattered Clouds,130,2013-07-13 12:54:00
8:14 AM,77.0,68.0,74,29.91,10.0,SSE,5.8,-,N/A,,Mostly Cloudy,150,2013-07-13 13:14:00
8:34 AM,78.8,69.8,74,29.91,10.0,SE,9.2,-,N/A,,Scattered Clouds,140,2013-07-13 13:34:00
8:53 AM,78.8,69.8,74,29.92,10.0,SE,10.4,-,N/A,,Mostly Cloudy,130,2013-07-13 13:53:00
9:13 AM,78.8,68.0,69,29.92,10.0,SE,9.2,-,N/A,,Overcast,130,2013-07-13 14:13:00
9:33 AM,77.0,66.2,69,29.92,10.0,SE,6.9,-,N/A,,Mostly Cloudy,130,2013-07-13 14:33:00
9:54 AM,77.0,66.2,69,29.93,10.0,SSE,6.9,-,N/A,,Overcast,150,2013-07-13 14:54:00
10:13 AM,77.0,66.2,69,29.94,10.0,SSE,8.1,-,N/A,,Overcast,150,2013-07-13 15:13:00
10:34 AM,78.8,68.0,69,29.93,10.0,SSE,5.8,-,N/A,,Mostly Cloudy,150,2013-07-13 15:34:00
10:53 AM,78.8,69.8,74,29.93,7.0,SSE,5.8,-,N/A,,Mostly Cloudy,150,2013-07-13 15:53:00
11:13 AM,78.8,68.0,69,29.92,10.0,SE,11.5,-,N/A,,Scattered Clouds,130,2013-07-13 16:13:00
11:33 AM,78.8,68.0,69,29.90,10.0,SE,17.3,-,N/A,Rain,Light Rain,130,2013-07-13 16:33:00
11:54 AM,78.8,68.0,69,29.89,10.0,ESE,15.0,23.0,N/A,Rain,Light Rain,110,2013-07-13 16:54:00
12:13 PM,77.0,66.2,69,29.91,10.0,SE,10.4,20.7,N/A,,Scattered Clouds,140,2013-07-13 17:13:00
12:33 PM,75.2,66.2,73,29.93,10.0,SSE,5.8,-,N/A,,Scattered Clouds,150,2013-07-13 17:33:00
12:53 PM,77.0,68.0,74,29.95,10.0,South,9.2,-,N/A,,Mostly Cloudy,180,2013-07-13 17:53:00
1:13 PM,77.0,66.2,69,29.95,10.0,South,10.4,-,N/A,,Mostly Cloudy,180,2013-07-13 18:13:00
1:34 PM,78.8,68.0,69,29.95,10.0,South,5.8,-,N/A,,Mostly Cloudy,190,2013-07-13 18:34:00
1:53 PM,80.6,69.8,70,29.95,10.0,South,6.9,-,N/A,,Scattered Clouds,180,2013-07-13 18:53:00
2:13 PM,80.6,69.8,70,29.95,10.0,SSE,6.9,-,N/A,,Scattered Clouds,160,2013-07-13 19:13:00
2:33 PM,80.6,69.8,70,29.95,10.0,SSE,5.8,-,N/A,,Clear,160,2013-07-13 19:33:00
2:53 PM,80.6,69.8,70,29.94,10.0,SE,4.6,-,N/A,,Clear,130,2013-07-13 19:53:00
3:13 PM,82.4,69.8,66,29.94,10.0,SE,5.8,-,N/A,,Clear,130,2013-07-13 20:13:00
3:34 PM,82.4,69.8,66,29.94,10.0,East,8.1,-,N/A,,Clear,100,2013-07-13 20:34:00
3:53 PM,84.2,69.8,62,29.94,10.0,SE,9.2,-,N/A,,Clear,130,2013-07-13 20:53:00
4:13 PM,82.4,69.8,66,29.94,10.0,SE,9.2,-,N/A,,Scattered Clouds,140,2013-07-13 21:13:00
4:33 PM,82.4,69.8,66,29.94,10.0,SE,8.1,-,N/A,,Mostly Cloudy,130,2013-07-13 21:33:00
4:53 PM,80.6,69.8,70,29.94,10.0,ESE,10.4,-,N/A,,Overcast,120,2013-07-13 21:53:00
5:14 PM,80.6,69.8,70,29.94,10.0,ESE,10.4,-,N/A,,Mostly Cloudy,110,2013-07-13 22:14:00
5:34 PM,80.6,69.8,70,29.95,10.0,ESE,12.7,-,N/A,,Mostly Cloudy,110,2013-07-13 22:34:00
5:54 PM,80.6,69.8,70,29.95,10.0,ESE,12.7,-,N/A,,Overcast,110,2013-07-13 22:54:00
6:13 PM,78.8,68.0,69,29.95,10.0,East,12.7,-,N/A,,Overcast,100,2013-07-13 23:13:00
6:33 PM,78.8,68.0,69,29.95,10.0,East,15.0,-,N/A,,Mostly Cloudy,100,2013-07-13 23:33:00
6:53 PM,78.8,66.2,65,29.94,10.0,ESE,16.1,-,N/A,,Mostly Cloudy,110,2013-07-13 23:53:00
7:14 PM,77.0,66.2,69,29.95,10.0,East,13.8,20.7,N/A,,Mostly Cloudy,100,2013-07-14 00:14:00
7:33 PM,75.2,66.2,73,29.94,10.0,East,17.3,21.9,N/A,,Scattered Clouds,100,2013-07-14 00:33:00
7:53 PM,75.2,66.2,73,29.93,10.0,ESE,18.4,-,N/A,,Mostly Cloudy,110,2013-07-14 00:53:00
8:14 PM,75.2,66.2,73,29.93,10.0,ESE,15.0,-,N/A,,Mostly Cloudy,110,2013-07-14 01:14:00
8:33 PM,75.2,66.2,73,29.93,10.0,ESE,13.8,19.6,N/A,,Mostly Cloudy,110,2013-07-14 01:33:00
8:53 PM,75.2,66.2,73,29.93,10.0,ESE,11.5,-,N/A,,Mostly Cloudy,110,2013-07-14 01:53:00
9:13 PM,75.2,66.2,73,29.93,10.0,ESE,9.2,-,N/A,,Mostly Cloudy,120,2013-07-14 02:13:00
9:33 PM,75.2,66.2,73,29.94,10.0,ESE,10.4,-,N/A,,Mostly Cloudy,110,2013-07-14 02:33:00
9:53 PM,75.2,66.2,73,29.95,10.0,ESE,10.4,-,N/A,,Mostly Cloudy,110,2013-07-14 02:53:00
10:13 PM,75.2,66.2,73,29.96,10.0,ESE,9.2,-,N/A,,Mostly Cloudy,110,2013-07-14 03:13:00
10:33 PM,75.2,66.2,73,29.97,10.0,ESE,10.4,-,N/A,,Overcast,110,2013-07-14 03:33:00
10:54 PM,75.2,66.2,73,29.98,10.0,ESE,9.2,-,N/A,,Overcast,110,2013-07-14 03:54:00
11:13 PM,75.2,66.2,73,29.99,10.0,ESE,8.1,-,N/A,,Overcast,110,2013-07-14 04:13:00
11:33 PM,75.2,66.2,73,29.99,10.0,ESE,8.1,-,N/A,,Mostly Cloudy,120,2013-07-14 04:33:00
11:53 PM,75.2,66.2,73,29.99,10.0,ESE,9.2,-,N/A,,Mostly Cloudy,120,2013-07-14 04:53:00